sensor_id;sensor_type;location;lat;lon;timestamp;pressure;altitude;pressure_sealevel;temperature;humidity
26657;BME280;14279;50.010;8.260;2023-01-13T00:00:17;99842.72;;;10.75;85.45
26657;BME280;14279;50.010;8.260;2023-01-13T00:02:43;99838.19;;;10.62;86.00
26657;BME280;14279;50.010;8.260;2023-01-13T00:05:08;99843.31;;;10.64;86.36
26657;BME280;14279;50.010;8.260;2023-01-13T00:07:34;99836.09;;;10.69;86.65
26657;BME280;14279;50.010;8.260;2023-01-13T00:09:59;99834.31;;;10.70;85.91
26657;BME280;14279;50.010;8.260;2023-01-13T00:12:24;99822.66;;;10.61;86.09
26657;BME280;14279;50.010;8.260;2023-01-13T00:14:49;99826.63;;;10.68;85.61
26657;BME280;14279;50.010;8.260;2023-01-13T00:17:15;99829.88;;;10.72;85.36
26657;BME280;14279;50.010;8.260;2023-01-13T00:19:40;99822.22;;;10.68;85.48
26657;BME280;14279;50.010;8.260;2023-01-13T00:22:05;99828.53;;;10.80;84.97
26657;BME280;14279;50.010;8.260;2023-01-13T00:24:31;99821.47;;;10.82;84.78
26657;BME280;14279;50.010;8.260;2023-01-13T00:26:56;99823.75;;;10.73;85.07
26657;BME280;14279;50.010;8.260;2023-01-13T00:29:21;99811.00;;;10.68;85.68
26657;BME280;14279;50.010;8.260;2023-01-13T00:31:48;99814.41;;;10.85;84.77
26657;BME280;14279;50.010;8.260;2023-01-13T00:34:13;99806.78;;;10.65;85.35
26657;BME280;14279;50.010;8.260;2023-01-13T00:36:38;99811.97;;;10.65;85.86
26657;BME280;14279;50.010;8.260;2023-01-13T00:39:04;99809.06;;;10.72;85.58
26657;BME280;14279;50.010;8.260;2023-01-13T00:41:29;99800.75;;;10.65;86.92
26657;BME280;14279;50.010;8.260;2023-01-13T00:44:14;99795.88;;;10.75;86.20
26657;BME280;14279;50.010;8.260;2023-01-13T00:46:39;99786.53;;;10.71;86.57
26657;BME280;14279;50.010;8.260;2023-01-13T00:49:05;99781.84;;;10.61;86.79
26657;BME280;14279;50.010;8.260;2023-01-13T00:51:30;99781.25;;;10.72;86.15
26657;BME280;14279;50.010;8.260;2023-01-13T00:53:56;99780.16;;;10.76;85.90
26657;BME280;14279;50.010;8.260;2023-01-13T00:56:23;99784.72;;;10.57;86.45
26657;BME280;14279;50.010;8.260;2023-01-13T00:58:48;99782.84;;;10.59;86.39
26657;BME280;14279;50.010;8.260;2023-01-13T01:01:19;99770.91;;;10.71;85.69
26657;BME280;14279;50.010;8.260;2023-01-13T01:03:49;99772.94;;;10.65;85.97
26657;BME280;14279;50.010;8.260;2023-01-13T01:06:17;99769.56;;;10.79;85.66
26657;BME280;14279;50.010;8.260;2023-01-13T01:08:43;99771.69;;;10.73;85.69
26657;BME280;14279;50.010;8.260;2023-01-13T01:11:10;99769.66;;;10.78;85.40
26657;BME280;14279;50.010;8.260;2023-01-13T01:13:37;99767.53;;;10.85;85.00
26657;BME280;14279;50.010;8.260;2023-01-13T01:16:07;99770.91;;;10.87;84.28
26657;BME280;14279;50.010;8.260;2023-01-13T01:18:33;99775.09;;;10.73;85.35
26657;BME280;14279;50.010;8.260;2023-01-13T01:20:59;99770.03;;;10.86;84.44
26657;BME280;14279;50.010;8.260;2023-01-13T01:23:27;99772.47;;;10.89;84.52
26657;BME280;14279;50.010;8.260;2023-01-13T01:25:52;99772.75;;;10.85;84.46
26657;BME280;14279;50.010;8.260;2023-01-13T01:28:17;99776.97;;;10.71;85.11
26657;BME280;14279;50.010;8.260;2023-01-13T01:30:44;99775.22;;;11.02;83.61
26657;BME280;14279;50.010;8.260;2023-01-13T01:33:09;99760.91;;;10.95;83.49
26657;BME280;14279;50.010;8.260;2023-01-13T01:35:38;99770.56;;;10.93;83.91
26657;BME280;14279;50.010;8.260;2023-01-13T01:38:03;99775.91;;;11.06;83.04
26657;BME280;14279;50.010;8.260;2023-01-13T01:40:29;99779.91;;;11.11;83.01
26657;BME280;14279;50.010;8.260;2023-01-13T01:42:54;99768.47;;;11.14;82.51
26657;BME280;14279;50.010;8.260;2023-01-13T01:45:39;99762.69;;;11.09;82.92
26657;BME280;14279;50.010;8.260;2023-01-13T01:48:05;99768.94;;;10.90;83.96
26657;BME280;14279;50.010;8.260;2023-01-13T01:50:32;99769.28;;;10.84;84.83
26657;BME280;14279;50.010;8.260;2023-01-13T01:53:13;99760.22;;;10.91;84.23
26657;BME280;14279;50.010;8.260;2023-01-13T01:55:41;99762.34;;;10.85;84.61
26657;BME280;14279;50.010;8.260;2023-01-13T01:58:10;99768.63;;;10.80;85.43
26657;BME280;14279;50.010;8.260;2023-01-13T02:00:38;99755.34;;;10.85;88.26
26657;BME280;14279;50.010;8.260;2023-01-13T02:03:04;99752.59;;;10.72;86.16
26657;BME280;14279;50.010;8.260;2023-01-13T02:05:31;99745.22;;;10.80;85.35
26657;BME280;14279;50.010;8.260;2023-01-13T02:07:58;99741.78;;;10.80;85.38
26657;BME280;14279;50.010;8.260;2023-01-13T02:10:26;99743.53;;;10.79;85.48
26657;BME280;14279;50.010;8.260;2023-01-13T02:12:53;99740.75;;;10.82;85.09
26657;BME280;14279;50.010;8.260;2023-01-13T02:15:22;99738.50;;;10.76;84.97
26657;BME280;14279;50.010;8.260;2023-01-13T02:32:05;99731.00;;;10.86;83.41
26657;BME280;14279;50.010;8.260;2023-01-13T02:34:39;99730.13;;;10.71;84.11
26657;BME280;14279;50.010;8.260;2023-01-13T02:37:11;99727.09;;;10.79;83.78
26657;BME280;14279;50.010;8.260;2023-01-13T02:39:47;99715.63;;;10.81;82.92
26657;BME280;14279;50.010;8.260;2023-01-13T02:42:26;99708.28;;;10.74;83.83
26657;BME280;14279;50.010;8.260;2023-01-13T02:45:25;99708.47;;;10.85;83.03
26657;BME280;14279;50.010;8.260;2023-01-13T02:47:53;99699.50;;;11.05;81.92
26657;BME280;14279;50.010;8.260;2023-01-13T02:50:34;99706.69;;;10.71;83.41
26657;BME280;14279;50.010;8.260;2023-01-13T02:53:09;99698.03;;;10.71;83.55
26657;BME280;14279;50.010;8.260;2023-01-13T02:55:49;99702.72;;;10.80;83.71
26657;BME280;14279;50.010;8.260;2023-01-13T02:58:20;99694.84;;;10.65;84.14
26657;BME280;14279;50.010;8.260;2023-01-13T03:00:47;99691.81;;;10.73;83.47
26657;BME280;14279;50.010;8.260;2023-01-13T03:03:13;99688.66;;;10.68;84.07
26657;BME280;14279;50.010;8.260;2023-01-13T03:05:41;99695.53;;;10.69;84.02
26657;BME280;14279;50.010;8.260;2023-01-13T03:10:58;99685.13;;;10.69;83.95
26657;BME280;14279;50.010;8.260;2023-01-13T03:13:58;99699.06;;;10.68;84.38
26657;BME280;14279;50.010;8.260;2023-01-13T03:16:44;99684.75;;;10.75;84.36
26657;BME280;14279;50.010;8.260;2023-01-13T03:19:20;99679.13;;;10.83;84.27
26657;BME280;14279;50.010;8.260;2023-01-13T03:25:12;99679.03;;;10.85;84.54
26657;BME280;14279;50.010;8.260;2023-01-13T03:27:53;99682.25;;;10.74;84.70
26657;BME280;14279;50.010;8.260;2023-01-13T03:30:30;99677.88;;;10.74;84.44
26657;BME280;14279;50.010;8.260;2023-01-13T03:33:01;99661.38;;;10.90;84.09
26657;BME280;14279;50.010;8.260;2023-01-13T03:35:32;99655.69;;;10.83;84.05
26657;BME280;14279;50.010;8.260;2023-01-13T03:38:06;99672.66;;;10.74;84.06
26657;BME280;14279;50.010;8.260;2023-01-13T03:40:37;99651.59;;;10.79;84.09
26657;BME280;14279;50.010;8.260;2023-01-13T03:43:09;99649.22;;;10.74;84.21
26657;BME280;14279;50.010;8.260;2023-01-13T03:46:01;99662.06;;;10.77;84.18
26657;BME280;14279;50.010;8.260;2023-01-13T03:48:31;99650.56;;;10.96;83.65
26657;BME280;14279;50.010;8.260;2023-01-13T03:51:04;99667.03;;;10.96;83.78
26657;BME280;14279;50.010;8.260;2023-01-13T03:53:42;99655.31;;;10.89;83.44
26657;BME280;14279;50.010;8.260;2023-01-13T03:56:22;99660.34;;;10.92;83.22
26657;BME280;14279;50.010;8.260;2023-01-13T03:58:51;99651.53;;;10.95;83.05
26657;BME280;14279;50.010;8.260;2023-01-13T04:01:24;99654.94;;;10.95;83.31
26657;BME280;14279;50.010;8.260;2023-01-13T04:03:59;99655.47;;;10.72;84.61
26657;BME280;14279;50.010;8.260;2023-01-13T04:06:35;99641.00;;;10.82;84.35
26657;BME280;14279;50.010;8.260;2023-01-13T04:09:32;99645.28;;;10.83;83.88
26657;BME280;14279;50.010;8.260;2023-01-13T04:12:30;99638.38;;;10.82;84.58
26657;BME280;14279;50.010;8.260;2023-01-13T04:15:21;99646.06;;;10.69;85.54
26657;BME280;14279;50.010;8.260;2023-01-13T04:17:48;99637.88;;;10.61;86.69
26657;BME280;14279;50.010;8.260;2023-01-13T04:20:14;99632.38;;;10.65;86.20
26657;BME280;14279;50.010;8.260;2023-01-13T04:22:39;99636.28;;;10.58;86.60
26657;BME280;14279;50.010;8.260;2023-01-13T04:25:05;99629.19;;;10.60;86.53
26657;BME280;14279;50.010;8.260;2023-01-13T04:27:30;99631.38;;;10.68;86.16
26657;BME280;14279;50.010;8.260;2023-01-13T04:29:56;99636.00;;;10.63;85.73
26657;BME280;14279;50.010;8.260;2023-01-13T04:32:21;99630.47;;;10.69;85.86
26657;BME280;14279;50.010;8.260;2023-01-13T04:34:46;99632.56;;;10.62;85.34
26657;BME280;14279;50.010;8.260;2023-01-13T04:37:12;99633.88;;;10.70;85.31
26657;BME280;14279;50.010;8.260;2023-01-13T04:39:37;99626.38;;;10.79;84.30
26657;BME280;14279;50.010;8.260;2023-01-13T04:42:02;99627.75;;;10.85;83.49
26657;BME280;14279;50.010;8.260;2023-01-13T04:44:28;99627.13;;;10.81;83.74
26657;BME280;14279;50.010;8.260;2023-01-13T04:46:56;99626.00;;;10.86;83.52
26657;BME280;14279;50.010;8.260;2023-01-13T04:49:22;99626.84;;;10.86;83.74
26657;BME280;14279;50.010;8.260;2023-01-13T04:51:48;99624.69;;;10.78;85.17
26657;BME280;14279;50.010;8.260;2023-01-13T04:54:13;99620.69;;;10.73;85.95
26657;BME280;14279;50.010;8.260;2023-01-13T04:56:38;99632.38;;;10.65;87.02
26657;BME280;14279;50.010;8.260;2023-01-13T04:59:04;99631.91;;;10.59;86.84
26657;BME280;14279;50.010;8.260;2023-01-13T05:01:29;99633.13;;;10.67;87.25
26657;BME280;14279;50.010;8.260;2023-01-13T05:03:54;99621.78;;;10.54;87.33
26657;BME280;14279;50.010;8.260;2023-01-13T05:06:19;99640.22;;;10.49;88.40
26657;BME280;14279;50.010;8.260;2023-01-13T05:08:45;99641.50;;;10.58;88.39
26657;BME280;14279;50.010;8.260;2023-01-13T05:11:10;99657.75;;;10.62;87.89
26657;BME280;14279;50.010;8.260;2023-01-13T05:13:53;99678.88;;;10.72;87.42
26657;BME280;14279;50.010;8.260;2023-01-13T05:16:37;99689.88;;;10.77;87.15
26657;BME280;14279;50.010;8.260;2023-01-13T05:19:21;99696.78;;;10.92;87.06
26657;BME280;14279;50.010;8.260;2023-01-13T05:21:47;99712.06;;;10.68;88.08
26657;BME280;14279;50.010;8.260;2023-01-13T05:24:30;99709.53;;;9.70;100.00
26657;BME280;14279;50.010;8.260;2023-01-13T05:27:14;99707.56;;;9.42;98.80
26657;BME280;14279;50.010;8.260;2023-01-13T05:29:40;99728.50;;;9.39;100.00
26657;BME280;14279;50.010;8.260;2023-01-13T05:32:05;99722.84;;;9.30;100.00
26657;BME280;14279;50.010;8.260;2023-01-13T05:34:32;99720.09;;;9.33;100.00
26657;BME280;14279;50.010;8.260;2023-01-13T05:36:58;99729.16;;;9.42;100.00
26657;BME280;14279;50.010;8.260;2023-01-13T05:39:23;99713.28;;;9.48;100.00
26657;BME280;14279;50.010;8.260;2023-01-13T05:41:48;99723.50;;;9.52;100.00
26657;BME280;14279;50.010;8.260;2023-01-13T05:44:32;99723.88;;;9.61;100.00
26657;BME280;14279;50.010;8.260;2023-01-13T05:46:57;99720.44;;;9.77;100.00
26657;BME280;14279;50.010;8.260;2023-01-13T05:49:23;99724.94;;;9.57;100.00
26657;BME280;14279;50.010;8.260;2023-01-13T05:51:48;99720.47;;;9.43;98.95
26657;BME280;14279;50.010;8.260;2023-01-13T05:54:13;99726.25;;;9.48;99.22
26657;BME280;14279;50.010;8.260;2023-01-13T05:56:38;99732.88;;;9.38;97.34
26657;BME280;14279;50.010;8.260;2023-01-13T05:59:04;99728.81;;;9.32;97.06
26657;BME280;14279;50.010;8.260;2023-01-13T06:01:29;99722.84;;;9.30;96.50
26657;BME280;14279;50.010;8.260;2023-01-13T06:03:54;99730.63;;;9.48;96.43
26657;BME280;14279;50.010;8.260;2023-01-13T06:06:19;99736.38;;;9.37;95.51
26657;BME280;14279;50.010;8.260;2023-01-13T06:08:45;99733.59;;;9.40;94.68
26657;BME280;14279;50.010;8.260;2023-01-13T06:11:10;99755.84;;;9.28;93.20
26657;BME280;14279;50.010;8.260;2023-01-13T06:13:35;99747.91;;;9.31;94.74
26657;BME280;14279;50.010;8.260;2023-01-13T06:16:01;99762.91;;;9.26;94.40
26657;BME280;14279;50.010;8.260;2023-01-13T06:18:26;99771.53;;;9.27;94.62
26657;BME280;14279;50.010;8.260;2023-01-13T06:20:52;99764.88;;;9.21;94.29
26657;BME280;14279;50.010;8.260;2023-01-13T06:23:17;99745.84;;;9.21;94.67
26657;BME280;14279;50.010;8.260;2023-01-13T06:26:00;99733.09;;;9.16;93.90
26657;BME280;14279;50.010;8.260;2023-01-13T06:28:28;99719.41;;;9.30;94.79
26657;BME280;14279;50.010;8.260;2023-01-13T06:31:00;99731.19;;;9.20;94.31
26657;BME280;14279;50.010;8.260;2023-01-13T06:33:36;99693.97;;;9.37;94.83
26657;BME280;14279;50.010;8.260;2023-01-13T06:36:14;99705.16;;;9.03;92.86
26657;BME280;14279;50.010;8.260;2023-01-13T06:38:43;99722.94;;;8.94;93.31
26657;BME280;14279;50.010;8.260;2023-01-13T06:41:10;99739.81;;;8.85;93.00
26657;BME280;14279;50.010;8.260;2023-01-13T06:43:37;99748.66;;;8.81;92.63
26657;BME280;14279;50.010;8.260;2023-01-13T06:46:03;99747.88;;;8.79;91.01
26657;BME280;14279;50.010;8.260;2023-01-13T06:48:31;99734.72;;;8.83;91.54
26657;BME280;14279;50.010;8.260;2023-01-13T06:51:00;99747.88;;;8.79;90.50
26657;BME280;14279;50.010;8.260;2023-01-13T06:53:32;99727.31;;;8.93;90.26
26657;BME280;14279;50.010;8.260;2023-01-13T06:56:17;99737.84;;;8.90;89.06
26657;BME280;14279;50.010;8.260;2023-01-13T06:58:49;99740.81;;;9.00;88.53
26657;BME280;14279;50.010;8.260;2023-01-13T07:01:16;99746.16;;;8.97;88.25
26657;BME280;14279;50.010;8.260;2023-01-13T07:03:42;99743.03;;;8.90;87.32
26657;BME280;14279;50.010;8.260;2023-01-13T07:06:07;99742.22;;;8.90;87.32
26657;BME280;14279;50.010;8.260;2023-01-13T07:08:32;99735.09;;;8.93;87.87
26657;BME280;14279;50.010;8.260;2023-01-13T07:11:00;99747.41;;;9.07;88.48
26657;BME280;14279;50.010;8.260;2023-01-13T07:13:25;99753.75;;;9.01;87.06
26657;BME280;14279;50.010;8.260;2023-01-13T07:16:10;99758.16;;;8.99;88.25
26657;BME280;14279;50.010;8.260;2023-01-13T07:18:35;99762.97;;;8.90;88.14
26657;BME280;14279;50.010;8.260;2023-01-13T07:21:02;99776.00;;;8.88;87.99
26657;BME280;14279;50.010;8.260;2023-01-13T07:23:30;99777.06;;;8.84;87.51
26657;BME280;14279;50.010;8.260;2023-01-13T07:26:12;99775.03;;;8.91;86.88
26657;BME280;14279;50.010;8.260;2023-01-13T07:28:38;99782.28;;;9.01;86.97
26657;BME280;14279;50.010;8.260;2023-01-13T07:31:11;99783.13;;;9.02;86.57
26657;BME280;14279;50.010;8.260;2023-01-13T07:33:40;99785.34;;;8.92;85.93
26657;BME280;14279;50.010;8.260;2023-01-13T07:36:06;99792.75;;;9.00;85.40
26657;BME280;14279;50.010;8.260;2023-01-13T07:38:32;99799.94;;;9.12;84.67
26657;BME280;14279;50.010;8.260;2023-01-13T07:41:02;99797.94;;;9.17;82.75
26657;BME280;14279;50.010;8.260;2023-01-13T07:43:46;99799.25;;;9.26;81.25
26657;BME280;14279;50.010;8.260;2023-01-13T07:46:12;99806.97;;;9.28;80.72
26657;BME280;14279;50.010;8.260;2023-01-13T07:48:37;99817.59;;;9.23;80.50
26657;BME280;14279;50.010;8.260;2023-01-13T07:51:04;99817.66;;;9.39;80.38
26657;BME280;14279;50.010;8.260;2023-01-13T07:53:30;99814.47;;;9.34;80.40
26657;BME280;14279;50.010;8.260;2023-01-13T07:55:56;99819.09;;;9.27;80.87
26657;BME280;14279;50.010;8.260;2023-01-13T07:58:23;99814.38;;;9.18;80.87
26657;BME280;14279;50.010;8.260;2023-01-13T08:00:49;99816.69;;;9.24;81.08
26657;BME280;14279;50.010;8.260;2023-01-13T08:03:14;99810.47;;;9.09;82.31
26657;BME280;14279;50.010;8.260;2023-01-13T08:05:39;99821.25;;;9.19;82.58
26657;BME280;14279;50.010;8.260;2023-01-13T08:08:05;99810.72;;;9.22;81.86
26657;BME280;14279;50.010;8.260;2023-01-13T08:10:30;99815.81;;;9.41;80.89
26657;BME280;14279;50.010;8.260;2023-01-13T08:12:56;99825.09;;;9.47;80.52
26657;BME280;14279;50.010;8.260;2023-01-13T08:15:45;99834.31;;;9.53;79.72
26657;BME280;14279;50.010;8.260;2023-01-13T08:18:10;99840.03;;;9.59;78.94
26657;BME280;14279;50.010;8.260;2023-01-13T08:20:36;99838.75;;;9.51;80.03
26657;BME280;14279;50.010;8.260;2023-01-13T08:23:01;99839.38;;;9.56;79.99
26657;BME280;14279;50.010;8.260;2023-01-13T08:25:27;99832.25;;;9.59;78.99
26657;BME280;14279;50.010;8.260;2023-01-13T08:27:53;99830.56;;;9.58;79.80
26657;BME280;14279;50.010;8.260;2023-01-13T08:30:19;99843.66;;;9.57;79.08
26657;BME280;14279;50.010;8.260;2023-01-13T08:32:49;99839.28;;;9.57;78.18
26657;BME280;14279;50.010;8.260;2023-01-13T08:35:15;99844.41;;;9.59;77.47
26657;BME280;14279;50.010;8.260;2023-01-13T08:37:42;99842.03;;;9.54;77.20
26657;BME280;14279;50.010;8.260;2023-01-13T08:40:07;99835.47;;;9.47;78.35
26657;BME280;14279;50.010;8.260;2023-01-13T08:42:33;99839.66;;;9.50;76.79
26657;BME280;14279;50.010;8.260;2023-01-13T08:44:59;99858.38;;;9.74;76.41
26657;BME280;14279;50.010;8.260;2023-01-13T08:47:26;99852.56;;;9.69;75.09
26657;BME280;14279;50.010;8.260;2023-01-13T08:49:52;99856.16;;;9.66;74.10
26657;BME280;14279;50.010;8.260;2023-01-13T08:52:17;99859.78;;;9.97;73.23
26657;BME280;14279;50.010;8.260;2023-01-13T08:54:43;99868.50;;;9.96;73.21
26657;BME280;14279;50.010;8.260;2023-01-13T08:57:08;99873.41;;;10.02;73.23
26657;BME280;14279;50.010;8.260;2023-01-13T08:59:33;99877.47;;;9.90;72.67
26657;BME280;14279;50.010;8.260;2023-01-13T09:01:59;99887.50;;;9.81;74.49
26657;BME280;14279;50.010;8.260;2023-01-13T09:04:26;99886.97;;;9.91;72.45
26657;BME280;14279;50.010;8.260;2023-01-13T09:06:52;99886.66;;;9.98;72.28
26657;BME280;14279;50.010;8.260;2023-01-13T09:09:19;99883.88;;;10.01;71.53
26657;BME280;14279;50.010;8.260;2023-01-13T09:11:47;99888.16;;;10.02;71.19
26657;BME280;14279;50.010;8.260;2023-01-13T09:14:33;99900.13;;;10.22;70.31
26657;BME280;14279;50.010;8.260;2023-01-13T09:17:00;99907.94;;;10.22;69.83
26657;BME280;14279;50.010;8.260;2023-01-13T09:19:26;99915.28;;;10.14;69.98
26657;BME280;14279;50.010;8.260;2023-01-13T09:21:53;99926.63;;;9.95;66.29
26657;BME280;14279;50.010;8.260;2023-01-13T09:24:19;99939.88;;;9.90;66.56
26657;BME280;14279;50.010;8.260;2023-01-13T09:26:44;99929.16;;;10.14;64.92
26657;BME280;14279;50.010;8.260;2023-01-13T09:29:10;99932.38;;;10.35;64.55
26657;BME280;14279;50.010;8.260;2023-01-13T09:31:35;99946.13;;;10.39;63.44
26657;BME280;14279;50.010;8.260;2023-01-13T09:34:02;99944.59;;;10.17;63.68
26657;BME280;14279;50.010;8.260;2023-01-13T09:36:46;99950.44;;;10.72;62.56
26657;BME280;14279;50.010;8.260;2023-01-13T09:39:12;99958.06;;;10.43;62.17
26657;BME280;14279;50.010;8.260;2023-01-13T09:41:41;99949.25;;;10.28;62.00
26657;BME280;14279;50.010;8.260;2023-01-13T09:47:22;99960.50;;;10.46;60.99
26657;BME280;14279;50.010;8.260;2023-01-13T09:49:48;99946.88;;;10.75;60.96
26657;BME280;14279;50.010;8.260;2023-01-13T09:52:18;99960.91;;;10.55;59.70
26657;BME280;14279;50.010;8.260;2023-01-13T09:55:00;99967.81;;;10.56;59.63
26657;BME280;14279;50.010;8.260;2023-01-13T09:57:36;99960.03;;;10.72;58.84
26657;BME280;14279;50.010;8.260;2023-01-13T10:00:09;99954.16;;;10.68;59.35
26657;BME280;14279;50.010;8.260;2023-01-13T10:02:56;99932.31;;;10.71;59.86
26657;BME280;14279;50.010;8.260;2023-01-13T10:05:40;99932.06;;;10.91;59.66
26657;BME280;14279;50.010;8.260;2023-01-13T10:08:14;99932.78;;;10.95;60.34
26657;BME280;14279;50.010;8.260;2023-01-13T10:10:46;99932.19;;;10.90;60.08
26657;BME280;14279;50.010;8.260;2023-01-13T10:13:25;99937.56;;;11.03;60.94
26657;BME280;14279;50.010;8.260;2023-01-13T10:18:58;99947.38;;;10.81;60.86
26657;BME280;14279;50.010;8.260;2023-01-13T10:24:20;99941.06;;;10.86;59.38
26657;BME280;14279;50.010;8.260;2023-01-13T10:26:54;99938.53;;;11.00;59.05
26657;BME280;14279;50.010;8.260;2023-01-13T10:29:26;99939.97;;;10.74;60.85
26657;BME280;14279;50.010;8.260;2023-01-13T10:31:53;99955.63;;;10.90;60.66
26657;BME280;14279;50.010;8.260;2023-01-13T10:34:20;99943.59;;;10.71;61.07
26657;BME280;14279;50.010;8.260;2023-01-13T10:36:54;99958.94;;;10.60;62.67
26657;BME280;14279;50.010;8.260;2023-01-13T10:39:44;99967.97;;;10.52;62.52
26657;BME280;14279;50.010;8.260;2023-01-13T10:42:15;99970.97;;;10.45;62.82
26657;BME280;14279;50.010;8.260;2023-01-13T10:44:54;99960.41;;;10.30;63.51
26657;BME280;14279;50.010;8.260;2023-01-13T10:47:26;99967.19;;;10.50;63.80
26657;BME280;14279;50.010;8.260;2023-01-13T10:52:34;99971.66;;;10.48;63.20
26657;BME280;14279;50.010;8.260;2023-01-13T10:57:51;99969.44;;;10.58;64.26
26657;BME280;14279;50.010;8.260;2023-01-13T11:00:34;99947.31;;;10.83;63.56
26657;BME280;14279;50.010;8.260;2023-01-13T11:03:19;99959.38;;;10.84;63.48
26657;BME280;14279;50.010;8.260;2023-01-13T11:05:51;99946.69;;;10.78;62.93
26657;BME280;14279;50.010;8.260;2023-01-13T11:08:19;99956.59;;;10.71;63.58
26657;BME280;14279;50.010;8.260;2023-01-13T11:10:48;99956.28;;;10.93;62.80
26657;BME280;14279;50.010;8.260;2023-01-13T11:13:30;99945.59;;;10.66;62.52
26657;BME280;14279;50.010;8.260;2023-01-13T11:16:13;99953.75;;;10.76;61.54
26657;BME280;14279;50.010;8.260;2023-01-13T11:18:44;99977.44;;;10.71;61.99
26657;BME280;14279;50.010;8.260;2023-01-13T11:24:47;99953.06;;;10.88;60.09
26657;BME280;14279;50.010;8.260;2023-01-13T11:27:35;99947.56;;;11.10;58.73
26657;BME280;14279;50.010;8.260;2023-01-13T11:35:47;99964.09;;;11.25;56.84
26657;BME280;14279;50.010;8.260;2023-01-13T11:39:10;99946.47;;;10.98;56.77
26657;BME280;14279;50.010;8.260;2023-01-13T11:41:37;99946.38;;;11.16;56.03
26657;BME280;14279;50.010;8.260;2023-01-13T11:46:40;99958.38;;;10.87;57.80
26657;BME280;14279;50.010;8.260;2023-01-13T11:49:20;99952.75;;;11.26;57.77
26657;BME280;14279;50.010;8.260;2023-01-13T11:51:53;99960.59;;;11.57;57.58
26657;BME280;14279;50.010;8.260;2023-01-13T11:54:37;99959.72;;;11.26;57.00
26657;BME280;14279;50.010;8.260;2023-01-13T11:57:24;99965.28;;;10.88;58.66
26657;BME280;14279;50.010;8.260;2023-01-13T12:00:15;99968.63;;;11.22;57.92
26657;BME280;14279;50.010;8.260;2023-01-13T12:02:55;99960.38;;;10.81;58.20
26657;BME280;14279;50.010;8.260;2023-01-13T12:11:32;99970.69;;;10.33;60.63
26657;BME280;14279;50.010;8.260;2023-01-13T12:17:01;99948.84;;;9.85;65.80
26657;BME280;14279;50.010;8.260;2023-01-13T12:19:31;99972.13;;;9.86;65.88
26657;BME280;14279;50.010;8.260;2023-01-13T12:22:19;99947.69;;;9.90;65.85
26657;BME280;14279;50.010;8.260;2023-01-13T12:28:16;99950.84;;;10.31;64.14
26657;BME280;14279;50.010;8.260;2023-01-13T12:30:46;99936.66;;;10.36;63.35
26657;BME280;14279;50.010;8.260;2023-01-13T12:39:07;99951.72;;;10.97;60.51
26657;BME280;14279;50.010;8.260;2023-01-13T12:41:59;99960.56;;;10.94;60.08
26657;BME280;14279;50.010;8.260;2023-01-13T12:45:19;99956.06;;;11.61;56.93
26657;BME280;14279;50.010;8.260;2023-01-13T12:47:46;99957.53;;;11.50;57.23
26657;BME280;14279;50.010;8.260;2023-01-13T12:52:46;99959.75;;;11.56;54.74
26657;BME280;14279;50.010;8.260;2023-01-13T12:55:15;99962.75;;;11.34;54.75
26657;BME280;14279;50.010;8.260;2023-01-13T12:57:55;99958.28;;;11.36;55.00
26657;BME280;14279;50.010;8.260;2023-01-13T13:00:22;99957.13;;;11.10;56.80
26657;BME280;14279;50.010;8.260;2023-01-13T13:11:19;99944.63;;;11.17;56.29
26657;BME280;14279;50.010;8.260;2023-01-13T13:14:11;99953.69;;;11.09;56.18
26657;BME280;14279;50.010;8.260;2023-01-13T13:16:45;99969.91;;;10.98;57.19
26657;BME280;14279;50.010;8.260;2023-01-13T13:22:13;100009.06;;;10.63;59.64
26657;BME280;14279;50.010;8.260;2023-01-13T13:24:43;100023.47;;;10.18;60.61
26657;BME280;14279;50.010;8.260;2023-01-13T13:30:16;100007.09;;;9.44;66.61
26657;BME280;14279;50.010;8.260;2023-01-13T13:38:23;100017.03;;;9.53;66.05
26657;BME280;14279;50.010;8.260;2023-01-13T13:41:13;100010.34;;;9.67;66.04
26657;BME280;14279;50.010;8.260;2023-01-13T13:44:02;100034.94;;;9.59;66.23
26657;BME280;14279;50.010;8.260;2023-01-13T13:46:57;100025.28;;;9.81;65.66
26657;BME280;14279;50.010;8.260;2023-01-13T13:49:37;100035.72;;;9.61;65.72
26657;BME280;14279;50.010;8.260;2023-01-13T13:52:10;100037.44;;;9.80;65.52
26657;BME280;14279;50.010;8.260;2023-01-13T13:54:41;100040.69;;;9.66;65.66
26657;BME280;14279;50.010;8.260;2023-01-13T13:57:37;100044.38;;;9.62;65.85
26657;BME280;14279;50.010;8.260;2023-01-13T14:02:49;100082.34;;;9.45;67.76
26657;BME280;14279;50.010;8.260;2023-01-13T14:05:26;100083.16;;;9.08;71.48
26657;BME280;14279;50.010;8.260;2023-01-13T14:08:01;100066.63;;;9.10;73.21
26657;BME280;14279;50.010;8.260;2023-01-13T14:10:35;100072.94;;;8.84;73.82
26657;BME280;14279;50.010;8.260;2023-01-13T14:13:11;100081.16;;;8.75;73.90
26657;BME280;14279;50.010;8.260;2023-01-13T14:15:37;100079.25;;;8.78;74.10
26657;BME280;14279;50.010;8.260;2023-01-13T14:18:05;100088.16;;;8.72;73.77
26657;BME280;14279;50.010;8.260;2023-01-13T14:20:35;100063.16;;;8.91;72.00
26657;BME280;14279;50.010;8.260;2023-01-13T14:23:01;100078.75;;;9.10;69.11
26657;BME280;14279;50.010;8.260;2023-01-13T14:25:35;100066.00;;;9.24;69.43
26657;BME280;14279;50.010;8.260;2023-01-13T14:28:28;100051.16;;;9.45;67.56
26657;BME280;14279;50.010;8.260;2023-01-13T14:30:55;100062.69;;;9.59;66.69
26657;BME280;14279;50.010;8.260;2023-01-13T14:33:48;100050.81;;;9.53;66.17
26657;BME280;14279;50.010;8.260;2023-01-13T14:41:32;100063.03;;;9.51;65.51
26657;BME280;14279;50.010;8.260;2023-01-13T14:44:01;100052.72;;;9.50;65.60
26657;BME280;14279;50.010;8.260;2023-01-13T14:46:38;100064.97;;;9.65;65.85
26657;BME280;14279;50.010;8.260;2023-01-13T14:49:04;100070.09;;;9.49;65.84
26657;BME280;14279;50.010;8.260;2023-01-13T14:51:30;100075.47;;;9.44;66.43
26657;BME280;14279;50.010;8.260;2023-01-13T14:53:55;100068.53;;;9.45;66.37
26657;BME280;14279;50.010;8.260;2023-01-13T14:56:44;100068.31;;;9.69;66.28
26657;BME280;14279;50.010;8.260;2023-01-13T15:01:55;100080.69;;;9.81;67.71